sensor_id;sensor_type;location;lat;lon;timestamp;pressure;altitude;pressure_sealevel;temperature;humidity
40850;BME280;26571;41.610;25.380;2024-01-10T00:00:36;99434.25;;;0.13;nan
40850;BME280;26571;41.610;25.380;2024-01-10T00:03:02;99431.75;;;0.11;nan
40850;BME280;26571;41.610;25.380;2024-01-10T00:05:28;99424.34;;;0.04;nan
40850;BME280;26571;41.610;25.380;2024-01-10T00:07:54;99442.75;;;0.15;nan
40850;BME280;26571;41.610;25.380;2024-01-10T00:10:20;99452.84;;;0.21;nan
40850;BME280;26571;41.610;25.380;2024-01-10T00:12:47;99442.94;;;0.12;nan
40850;BME280;26571;41.610;25.380;2024-01-10T00:15:12;99418.78;;;-0.06;nan
40850;BME280;26571;41.610;25.380;2024-01-10T00:17:39;99448.41;;;0.06;nan
40850;BME280;26571;41.610;25.380;2024-01-10T00:20:06;99451.69;;;0.09;nan
40850;BME280;26571;41.610;25.380;2024-01-10T00:22:32;99451.63;;;0.11;nan
40850;BME280;26571;41.610;25.380;2024-01-10T00:24:57;99448.88;;;-0.04;nan
40850;BME280;26571;41.610;25.380;2024-01-10T00:27:23;99418.22;;;-0.30;nan
40850;BME280;26571;41.610;25.380;2024-01-10T00:29:49;99459.03;;;-0.01;nan
40850;BME280;26571;41.610;25.380;2024-01-10T00:32:16;99392.81;;;-0.39;nan
40850;BME280;26571;41.610;25.380;2024-01-10T00:34:42;99464.09;;;0.03;nan
40850;BME280;26571;41.610;25.380;2024-01-10T00:37:07;99444.22;;;-0.14;nan
40850;BME280;26571;41.610;25.380;2024-01-10T00:39:33;99459.03;;;-0.01;nan
40850;BME280;26571;41.610;25.380;2024-01-10T00:41:58;99466.06;;;-0.03;nan
40850;BME280;26571;41.610;25.380;2024-01-10T00:44:24;99452.06;;;0.02;nan
40850;BME280;26571;41.610;25.380;2024-01-10T00:46:49;99454.19;;;-0.07;nan
40850;BME280;26571;41.610;25.380;2024-01-10T00:49:15;99442.38;;;-0.30;nan
40850;BME280;26571;41.610;25.380;2024-01-10T00:51:40;99440.53;;;-0.28;nan
40850;BME280;26571;41.610;25.380;2024-01-10T00:54:06;99434.75;;;-0.52;nan
40850;BME280;26571;41.610;25.380;2024-01-10T00:56:31;99438.16;;;-0.32;nan
40850;BME280;26571;41.610;25.380;2024-01-10T00:58:57;99434.13;;;-0.38;nan
40850;BME280;26571;41.610;25.380;2024-01-10T01:01:23;99433.91;;;-0.33;nan
40850;BME280;26571;41.610;25.380;2024-01-10T01:03:49;99438.75;;;-0.44;nan
40850;BME280;26571;41.610;25.380;2024-01-10T01:06:15;99442.22;;;-0.45;nan
40850;BME280;26571;41.610;25.380;2024-01-10T01:08:40;99444.69;;;-0.42;nan
40850;BME280;26571;41.610;25.380;2024-01-10T01:11:06;99457.63;;;-0.42;nan
40850;BME280;26571;41.610;25.380;2024-01-10T01:13:31;99444.06;;;-0.47;nan
40850;BME280;26571;41.610;25.380;2024-01-10T01:15:57;99457.63;;;-0.42;nan
40850;BME280;26571;41.610;25.380;2024-01-10T01:18:22;99460.75;;;-0.36;nan
40850;BME280;26571;41.610;25.380;2024-01-10T01:20:48;99462.91;;;-0.27;nan
40850;BME280;26571;41.610;25.380;2024-01-10T01:23:15;99464.72;;;-0.29;nan
40850;BME280;26571;41.610;25.380;2024-01-10T01:25:41;99475.28;;;-0.33;nan
40850;BME280;26571;41.610;25.380;2024-01-10T01:28:06;99473.41;;;-0.30;nan
40850;BME280;26571;41.610;25.380;2024-01-10T01:30:32;99473.16;;;-0.25;nan
40850;BME280;26571;41.610;25.380;2024-01-10T01:32:57;99449.97;;;-0.45;nan
40850;BME280;26571;41.610;25.380;2024-01-10T01:35:22;99467.63;;;-0.17;nan
40850;BME280;26571;41.610;25.380;2024-01-10T01:37:49;99469.25;;;-0.15;nan
40850;BME280;26571;41.610;25.380;2024-01-10T01:40:14;99469.00;;;-0.10;nan
40850;BME280;26571;41.610;25.380;2024-01-10T01:42:40;99456.69;;;-0.05;nan
40850;BME280;26571;41.610;25.380;2024-01-10T01:45:06;99447.03;;;-0.02;nan
40850;BME280;26571;41.610;25.380;2024-01-10T01:47:32;99438.50;;;-0.04;nan
40850;BME280;26571;41.610;25.380;2024-01-10T01:49:57;99447.84;;;-0.01;nan
40850;BME280;26571;41.610;25.380;2024-01-10T01:52:23;99431.19;;;-0.13;nan
40850;BME280;26571;41.610;25.380;2024-01-10T01:54:49;99453.88;;;-0.01;nan
40850;BME280;26571;41.610;25.380;2024-01-10T01:57:15;99440.41;;;-0.07;nan
40850;BME280;26571;41.610;25.380;2024-01-10T01:59:41;99434.38;;;-0.08;nan
40850;BME280;26571;41.610;25.380;2024-01-10T02:02:07;99451.16;;;0.03;nan
40850;BME280;26571;41.610;25.380;2024-01-10T02:04:33;99431.50;;;-0.02;nan
40850;BME280;26571;41.610;25.380;2024-01-10T02:06:59;99438.81;;;0.08;nan
40850;BME280;26571;41.610;25.380;2024-01-10T02:09:25;99434.56;;;0.07;nan
40850;BME280;26571;41.610;25.380;2024-01-10T02:11:50;99433.13;;;0.01;nan
40850;BME280;26571;41.610;25.380;2024-01-10T02:14:16;99433.56;;;0.09;nan
40850;BME280;26571;41.610;25.380;2024-01-10T02:16:43;99424.28;;;0.05;nan
40850;BME280;26571;41.610;25.380;2024-01-10T02:19:26;99419.16;;;0.04;nan
40850;BME280;26571;41.610;25.380;2024-01-10T02:21:53;99426.72;;;0.08;nan
40850;BME280;26571;41.610;25.380;2024-01-10T02:24:19;99429.53;;;0.04;nan
40850;BME280;26571;41.610;25.380;2024-01-10T02:26:44;99433.28;;;0.15;nan
40850;BME280;26571;41.610;25.380;2024-01-10T02:29:10;99422.97;;;-0.04;nan
40850;BME280;26571;41.610;25.380;2024-01-10T02:31:35;99425.34;;;0.01;nan
40850;BME280;26571;41.610;25.380;2024-01-10T02:34:00;99434.25;;;0.13;nan
40850;BME280;26571;41.610;25.380;2024-01-10T02:36:26;99434.09;;;0.16;nan
40850;BME280;26571;41.610;25.380;2024-01-10T02:38:51;99432.72;;;0.09;nan
40850;BME280;26571;41.610;25.380;2024-01-10T02:41:17;99441.25;;;0.11;nan
40850;BME280;26571;41.610;25.380;2024-01-10T02:43:42;99442.25;;;0.08;nan
40850;BME280;26571;41.610;25.380;2024-01-10T02:46:08;99375.00;;;-0.28;nan
40850;BME280;26571;41.610;25.380;2024-01-10T02:48:33;99441.47;;;-0.11;nan
40850;BME280;26571;41.610;25.380;2024-01-10T02:50:59;99444.00;;;-0.10;nan
40850;BME280;26571;41.610;25.380;2024-01-10T02:53:25;99426.31;;;-0.19;nan
40850;BME280;26571;41.610;25.380;2024-01-10T02:55:50;99429.56;;;-0.15;nan
40850;BME280;26571;41.610;25.380;2024-01-10T02:58:15;99446.72;;;0.05;nan
40850;BME280;26571;41.610;25.380;2024-01-10T03:00:41;99433.38;;;-0.05;nan
40850;BME280;26571;41.610;25.380;2024-01-10T03:03:06;99434.69;;;-0.14;nan
40850;BME280;26571;41.610;25.380;2024-01-10T03:05:32;99453.44;;;0.09;nan
40850;BME280;26571;41.610;25.380;2024-01-10T03:07:57;99454.97;;;0.13;nan
40850;BME280;26571;41.610;25.380;2024-01-10T03:10:23;99444.59;;;0.13;nan
40850;BME280;26571;41.610;25.380;2024-01-10T03:12:48;99444.91;;;0.07;nan
40850;BME280;26571;41.610;25.380;2024-01-10T03:15:14;99442.72;;;0.16;nan
40850;BME280;26571;41.610;25.380;2024-01-10T03:17:39;99447.03;;;-0.02;nan
40850;BME280;26571;41.610;25.380;2024-01-10T03:20:05;99440.78;;;0.03;nan
40850;BME280;26571;41.610;25.380;2024-01-10T03:22:35;99453.81;;;0.01;nan
40850;BME280;26571;41.610;25.380;2024-01-10T03:25:00;99456.84;;;0.09;nan
40850;BME280;26571;41.610;25.380;2024-01-10T03:27:26;99444.00;;;-0.10;nan
40850;BME280;26571;41.610;25.380;2024-01-10T03:29:51;99453.72;;;0.03;nan
40850;BME280;26571;41.610;25.380;2024-01-10T03:32:17;99460.53;;;0.05;nan
40850;BME280;26571;41.610;25.380;2024-01-10T03:34:42;99459.66;;;0.05;nan
40850;BME280;26571;41.610;25.380;2024-01-10T03:37:08;99455.09;;;0.10;nan
40850;BME280;26571;41.610;25.380;2024-01-10T03:39:33;99458.06;;;0.02;nan
40850;BME280;26571;41.610;25.380;2024-01-10T03:41:59;99452.59;;;0.08;nan
40850;BME280;26571;41.610;25.380;2024-01-10T03:44:26;99448.56;;;0.03;nan
40850;BME280;26571;41.610;25.380;2024-01-10T03:46:51;99449.66;;;0.16;nan
40850;BME280;26571;41.610;25.380;2024-01-10T03:49:17;99451.63;;;0.11;nan
40850;BME280;26571;41.610;25.380;2024-01-10T03:51:43;99443.06;;;0.09;nan
40850;BME280;26571;41.610;25.380;2024-01-10T03:54:08;99452.97;;;0.18;nan
40850;BME280;26571;41.610;25.380;2024-01-10T03:56:34;99453.13;;;0.15;nan
40850;BME280;26571;41.610;25.380;2024-01-10T03:58:59;99458.28;;;0.15;nan
40850;BME280;26571;41.610;25.380;2024-01-10T04:01:26;99449.16;;;0.08;nan
40850;BME280;26571;41.610;25.380;2024-01-10T04:03:52;99466.69;;;0.20;nan
40850;BME280;26571;41.610;25.380;2024-01-10T04:06:17;99464.56;;;0.28;nan
40850;BME280;26571;41.610;25.380;2024-01-10T04:08:43;99515.13;;;0.18;nan
40850;BME280;26571;41.610;25.380;2024-01-10T04:11:08;99473.94;;;0.31;nan
40850;BME280;26571;41.610;25.380;2024-01-10T04:13:34;99467.44;;;0.22;nan
40850;BME280;26571;41.610;25.380;2024-01-10T04:16:00;99467.75;;;0.16;nan
40850;BME280;26571;41.610;25.380;2024-01-10T04:18:25;99480.84;;;0.13;nan
40850;BME280;26571;41.610;25.380;2024-01-10T04:20:51;99477.13;;;0.18;nan
40850;BME280;26571;41.610;25.380;2024-01-10T04:23:17;99474.00;;;0.12;nan
40850;BME280;26571;41.610;25.380;2024-01-10T04:25:42;99475.44;;;0.17;nan
40850;BME280;26571;41.610;25.380;2024-01-10T04:28:07;99477.03;;;0.20;nan
40850;BME280;26571;41.610;25.380;2024-01-10T04:30:33;99478.88;;;0.18;nan
40850;BME280;26571;41.610;25.380;2024-01-10T04:32:58;99480.63;;;0.17;nan
40850;BME280;26571;41.610;25.380;2024-01-10T04:35:24;99477.03;;;0.20;nan
40850;BME280;26571;41.610;25.380;2024-01-10T04:37:49;99474.97;;;0.09;nan
40850;BME280;26571;41.610;25.380;2024-01-10T04:40:15;99483.28;;;0.16;nan
40850;BME280;26571;41.610;25.380;2024-01-10T04:42:40;99495.09;;;0.21;nan
40850;BME280;26571;41.610;25.380;2024-01-10T04:45:06;99498.44;;;0.23;nan
40850;BME280;26571;41.610;25.380;2024-01-10T04:47:32;99495.81;;;0.25;nan
40850;BME280;26571;41.610;25.380;2024-01-10T04:49:58;99502.31;;;0.15;nan
40850;BME280;26571;41.610;25.380;2024-01-10T04:52:23;99486.16;;;0.10;nan
40850;BME280;26571;41.610;25.380;2024-01-10T04:54:49;99458.44;;;-0.06;nan
40850;BME280;26571;41.610;25.380;2024-01-10T04:57:15;99506.25;;;0.05;nan
40850;BME280;26571;41.610;25.380;2024-01-10T04:59:41;99503.66;;;0.05;nan
40850;BME280;26571;41.610;25.380;2024-01-10T05:02:06;99489.97;;;0.03;nan
40850;BME280;26571;41.610;25.380;2024-01-10T05:04:35;99495.69;;;0.09;nan
40850;BME280;26571;41.610;25.380;2024-01-10T05:07:01;99503.31;;;0.12;nan
40850;BME280;26571;41.610;25.380;2024-01-10T05:09:26;99510.06;;;0.15;nan
40850;BME280;26571;41.610;25.380;2024-01-10T05:11:52;99504.66;;;0.02;nan
40850;BME280;26571;41.610;25.380;2024-01-10T05:14:18;99504.88;;;-0.03;nan
40850;BME280;26571;41.610;25.380;2024-01-10T05:16:46;99509.31;;;-0.05;nan
40850;BME280;26571;41.610;25.380;2024-01-10T05:19:14;99505.94;;;-0.07;nan
40850;BME280;26571;41.610;25.380;2024-01-10T05:21:40;99512.03;;;-0.08;nan
40850;BME280;26571;41.610;25.380;2024-01-10T05:24:06;99513.25;;;-0.15;nan
40850;BME280;26571;41.610;25.380;2024-01-10T05:26:31;99505.13;;;-0.26;nan
40850;BME280;26571;41.610;25.380;2024-01-10T05:28:57;99518.84;;;-0.24;nan
40850;BME280;26571;41.610;25.380;2024-01-10T05:31:22;99522.63;;;-0.31;nan
40850;BME280;26571;41.610;25.380;2024-01-10T05:33:48;99519.69;;;-0.42;nan
40850;BME280;26571;41.610;25.380;2024-01-10T05:36:16;99505.41;;;-0.70;nan
40850;BME280;26571;41.610;25.380;2024-01-10T05:38:41;99536.19;;;-0.64;nan
40850;BME280;26571;41.610;25.380;2024-01-10T05:41:07;99532.59;;;-0.80;nan
40850;BME280;26571;41.610;25.380;2024-01-10T05:43:32;99522.16;;;-0.97;nan
40850;BME280;26571;41.610;25.380;2024-01-10T05:45:59;99541.91;;;-0.76;nan
40850;BME280;26571;41.610;25.380;2024-01-10T05:48:24;99540.22;;;-0.77;nan
40850;BME280;26571;41.610;25.380;2024-01-10T05:50:50;99540.22;;;-0.77;nan
40850;BME280;26571;41.610;25.380;2024-01-10T05:53:16;99536.31;;;-0.67;nan
40850;BME280;26571;41.610;25.380;2024-01-10T05:55:45;99543.03;;;-0.63;nan
40850;BME280;26571;41.610;25.380;2024-01-10T05:58:11;99561.78;;;-0.58;nan
40850;BME280;26571;41.610;25.380;2024-01-10T06:00:37;99554.53;;;-0.49;nan
40850;BME280;26571;41.610;25.380;2024-01-10T06:03:03;99534.25;;;-0.59;nan
40850;BME280;26571;41.610;25.380;2024-01-10T06:05:28;99558.56;;;-0.44;nan
40850;BME280;26571;41.610;25.380;2024-01-10T06:07:54;99560.94;;;-0.39;nan
40850;BME280;26571;41.610;25.380;2024-01-10T06:10:19;99564.72;;;-0.46;nan
40850;BME280;26571;41.610;25.380;2024-01-10T06:12:45;99543.59;;;-0.56;nan
40850;BME280;26571;41.610;25.380;2024-01-10T06:15:11;99567.81;;;-0.38;nan
40850;BME280;26571;41.610;25.380;2024-01-10T06:17:36;99562.41;;;-0.34;nan
40850;BME280;26571;41.610;25.380;2024-01-10T06:20:02;99543.94;;;-0.45;nan
40850;BME280;26571;41.610;25.380;2024-01-10T06:22:29;99566.69;;;-0.33;nan
40850;BME280;26571;41.610;25.380;2024-01-10T06:24:54;99570.31;;;-0.37;nan
40850;BME280;26571;41.610;25.380;2024-01-10T06:27:20;99549.59;;;-0.56;nan
40850;BME280;26571;41.610;25.380;2024-01-10T06:29:45;99574.94;;;-0.43;nan
40850;BME280;26571;41.610;25.380;2024-01-10T06:32:11;99539.19;;;-0.73;nan
40850;BME280;26571;41.610;25.380;2024-01-10T06:34:37;99580.38;;;-0.49;nan
40850;BME280;26571;41.610;25.380;2024-01-10T06:37:02;99587.34;;;-0.52;nan
40850;BME280;26571;41.610;25.380;2024-01-10T06:39:28;99601.06;;;-0.49;nan
40850;BME280;26571;41.610;25.380;2024-01-10T06:41:54;99597.41;;;-0.45;nan
40850;BME280;26571;41.610;25.380;2024-01-10T06:44:20;99606.13;;;-0.67;nan
40850;BME280;26571;41.610;25.380;2024-01-10T06:46:46;99594.13;;;-0.68;nan
40850;BME280;26571;41.610;25.380;2024-01-10T06:49:12;99607.50;;;-0.58;nan
40850;BME280;26571;41.610;25.380;2024-01-10T06:51:37;99616.84;;;-0.56;nan
40850;BME280;26571;41.610;25.380;2024-01-10T06:54:03;99625.25;;;-0.50;nan
40850;BME280;26571;41.610;25.380;2024-01-10T06:56:33;99631.44;;;-0.34;nan
40850;BME280;26571;41.610;25.380;2024-01-10T06:58:59;99626.63;;;-0.23;nan
40850;BME280;26571;41.610;25.380;2024-01-10T07:01:28;99630.03;;;-0.04;nan
40850;BME280;26571;41.610;25.380;2024-01-10T07:03:54;99634.88;;;-0.15;nan
40850;BME280;26571;41.610;25.380;2024-01-10T07:06:20;99644.31;;;-0.14;nan
40850;BME280;26571;41.610;25.380;2024-01-10T07:08:48;99640.22;;;-0.38;nan
40850;BME280;26571;41.610;25.380;2024-01-10T07:11:15;99642.00;;;-0.59;nan
40850;BME280;26571;41.610;25.380;2024-01-10T07:13:41;99651.91;;;-0.69;nan
40850;BME280;26571;41.610;25.380;2024-01-10T07:16:07;99661.63;;;-0.94;nan
40850;BME280;26571;41.610;25.380;2024-01-10T07:18:32;99658.16;;;-0.95;nan
40850;BME280;26571;41.610;25.380;2024-01-10T07:20:58;99666.13;;;-0.79;nan
40850;BME280;26571;41.610;25.380;2024-01-10T07:23:24;99666.00;;;-0.76;nan
40850;BME280;26571;41.610;25.380;2024-01-10T07:25:49;99673.03;;;-1.00;nan
40850;BME280;26571;41.610;25.380;2024-01-10T07:28:16;99665.44;;;-1.05;nan
40850;BME280;26571;41.610;25.380;2024-01-10T07:30:41;99675.50;;;-0.97;nan
40850;BME280;26571;41.610;25.380;2024-01-10T07:33:07;99666.13;;;-0.99;nan
40850;BME280;26571;41.610;25.380;2024-01-10T07:35:33;99669.38;;;-0.94;nan
40850;BME280;26571;41.610;25.380;2024-01-10T07:37:58;99668.03;;;-1.05;nan
40850;BME280;26571;41.610;25.380;2024-01-10T07:40:24;99666.78;;;-0.94;nan
40850;BME280;26571;41.610;25.380;2024-01-10T07:42:49;99669.38;;;-0.74;nan
40850;BME280;26571;41.610;25.380;2024-01-10T07:45:15;99671.34;;;-0.60;nan
40850;BME280;26571;41.610;25.380;2024-01-10T07:47:40;99679.16;;;-0.41;nan
40850;BME280;26571;41.610;25.380;2024-01-10T07:50:09;99673.78;;;-0.37;nan
40850;BME280;26571;41.610;25.380;2024-01-10T07:52:35;99673.94;;;-0.21;nan
40850;BME280;26571;41.610;25.380;2024-01-10T07:55:02;99680.78;;;0.01;nan
40850;BME280;26571;41.610;25.380;2024-01-10T07:57:30;99672.16;;;-0.19;nan
40850;BME280;26571;41.610;25.380;2024-01-10T07:59:56;99674.97;;;-0.05;nan
40850;BME280;26571;41.610;25.380;2024-01-10T08:02:21;99683.00;;;0.08;nan
40850;BME280;26571;41.610;25.380;2024-01-10T08:04:47;99687.56;;;0.22;nan
40850;BME280;26571;41.610;25.380;2024-01-10T08:07:13;99694.19;;;0.46;nan
40850;BME280;26571;41.610;25.380;2024-01-10T08:09:38;99703.97;;;0.59;nan
40850;BME280;26571;41.610;25.380;2024-01-10T08:12:04;99703.34;;;0.54;nan
40850;BME280;26571;41.610;25.380;2024-01-10T08:14:30;99701.03;;;0.66;nan
40850;BME280;26571;41.610;25.380;2024-01-10T08:16:55;99694.88;;;0.86;nan
40850;BME280;26571;41.610;25.380;2024-01-10T08:19:26;99684.69;;;1.00;nan
40850;BME280;26571;41.610;25.380;2024-01-10T08:21:53;99688.06;;;1.20;nan
40850;BME280;26571;41.610;25.380;2024-01-10T08:24:22;99687.81;;;1.42;nan
40850;BME280;26571;41.610;25.380;2024-01-10T08:26:48;99674.69;;;1.27;nan
40850;BME280;26571;41.610;25.380;2024-01-10T08:29:20;99681.69;;;1.60;nan
40850;BME280;26571;41.610;25.380;2024-01-10T08:31:46;99656.47;;;1.62;nan
40850;BME280;26571;41.610;25.380;2024-01-10T08:34:12;99691.81;;;1.98;nan
40850;BME280;26571;41.610;25.380;2024-01-10T08:36:37;99682.66;;;2.24;nan
40850;BME280;26571;41.610;25.380;2024-01-10T08:39:03;99657.75;;;2.36;nan
40850;BME280;26571;41.610;25.380;2024-01-10T08:41:29;99671.53;;;2.68;nan
40850;BME280;26571;41.610;25.380;2024-01-10T08:43:55;99681.38;;;3.08;nan
40850;BME280;26571;41.610;25.380;2024-01-10T08:46:21;99671.31;;;3.47;nan
40850;BME280;26571;41.610;25.380;2024-01-10T08:48:47;99669.69;;;3.74;nan
40850;BME280;26571;41.610;25.380;2024-01-10T08:51:13;99663.44;;;3.48;nan
40850;BME280;26571;41.610;25.380;2024-01-10T08:53:42;99667.31;;;3.41;nan
40850;BME280;26571;41.610;25.380;2024-01-10T08:56:07;99644.75;;;3.11;nan
40850;BME280;26571;41.610;25.380;2024-01-10T08:58:33;99667.84;;;3.32;nan
40850;BME280;26571;41.610;25.380;2024-01-10T09:00:58;99652.88;;;3.21;nan
40850;BME280;26571;41.610;25.380;2024-01-10T09:03:24;99655.94;;;3.28;nan
40850;BME280;26571;41.610;25.380;2024-01-10T09:05:49;99659.94;;;3.19;nan
40850;BME280;26571;41.610;25.380;2024-01-10T09:08:15;99635.84;;;3.16;nan
40850;BME280;26571;41.610;25.380;2024-01-10T09:10:41;99649.44;;;3.21;nan
40850;BME280;26571;41.610;25.380;2024-01-10T09:13:06;99648.34;;;3.25;nan
40850;BME280;26571;41.610;25.380;2024-01-10T09:15:32;99616.31;;;2.94;nan
40850;BME280;26571;41.610;25.380;2024-01-10T09:17:58;99655.16;;;3.11;nan
40850;BME280;26571;41.610;25.380;2024-01-10T09:20:23;99642.88;;;2.99;nan
40850;BME280;26571;41.610;25.380;2024-01-10T09:22:49;99650.91;;;2.80;nan
40850;BME280;26571;41.610;25.380;2024-01-10T09:25:14;99647.00;;;2.42;nan
40850;BME280;26571;41.610;25.380;2024-01-10T09:27:40;99636.38;;;2.15;nan
40850;BME280;26571;41.610;25.380;2024-01-10T09:30:10;99626.06;;;1.97;nan
40850;BME280;26571;41.610;25.380;2024-01-10T09:32:36;99627.97;;;1.94;nan
40850;BME280;26571;41.610;25.380;2024-01-10T09:35:02;99649.91;;;1.88;nan
40850;BME280;26571;41.610;25.380;2024-01-10T09:37:28;99657.06;;;2.00;nan
40850;BME280;26571;41.610;25.380;2024-01-10T09:39:53;99648.13;;;1.73;nan
40850;BME280;26571;41.610;25.380;2024-01-10T09:42:19;99649.16;;;1.53;nan
40850;BME280;26571;41.610;25.380;2024-01-10T09:44:51;99625.25;;;1.31;nan
40850;BME280;26571;41.610;25.380;2024-01-10T09:47:18;99634.94;;;1.44;nan
40850;BME280;26571;41.610;25.380;2024-01-10T09:49:45;99636.06;;;1.39;nan
40850;BME280;26571;41.610;25.380;2024-01-10T09:52:25;99609.47;;;1.18;nan
40850;BME280;26571;41.610;25.380;2024-01-10T09:54:55;99634.72;;;1.32;nan
40850;BME280;26571;41.610;25.380;2024-01-10T09:57:25;99632.34;;;1.27;nan
40850;BME280;26571;41.610;25.380;2024-01-10T09:59:51;99634.56;;;1.35;nan
40850;BME280;26571;41.610;25.380;2024-01-10T10:02:20;99611.84;;;1.22;nan
40850;BME280;26571;41.610;25.380;2024-01-10T10:05:03;99630.88;;;1.39;nan
40850;BME280;26571;41.610;25.380;2024-01-10T10:07:30;99624.56;;;1.44;nan
40850;BME280;26571;41.610;25.380;2024-01-10T10:09:55;99620.44;;;1.23;nan
40850;BME280;26571;41.610;25.380;2024-01-10T10:12:44;99618.94;;;1.19;nan
40850;BME280;26571;41.610;25.380;2024-01-10T10:15:14;99601.94;;;0.78;nan
40850;BME280;26571;41.610;25.380;2024-01-10T10:17:41;99651.00;;;0.64;nan
40850;BME280;26571;41.610;25.380;2024-01-10T10:20:20;99613.84;;;0.83;nan
40850;BME280;26571;41.610;25.380;2024-01-10T10:23:05;99605.69;;;0.73;nan
40850;BME280;26571;41.610;25.380;2024-01-10T10:27:58;99597.78;;;0.40;nan
40850;BME280;26571;41.610;25.380;2024-01-10T10:30:23;99602.59;;;0.30;nan
40850;BME280;26571;41.610;25.380;2024-01-10T10:32:49;99584.69;;;0.25;nan
40850;BME280;26571;41.610;25.380;2024-01-10T10:35:15;99603.03;;;0.38;nan
40850;BME280;26571;41.610;25.380;2024-01-10T10:37:41;99604.50;;;0.44;nan
40850;BME280;26571;41.610;25.380;2024-01-10T10:40:07;99595.44;;;0.35;nan
40850;BME280;26571;41.610;25.380;2024-01-10T10:42:34;99605.00;;;0.16;nan
40850;BME280;26571;41.610;25.380;2024-01-10T10:45:03;99595.97;;;0.06;nan
40850;BME280;26571;41.610;25.380;2024-01-10T10:47:36;99579.63;;;-0.14;nan
40850;BME280;26571;41.610;25.380;2024-01-10T10:50:04;99592.69;;;-0.17;nan
40850;BME280;26571;41.610;25.380;2024-01-10T10:52:30;99583.88;;;-0.13;nan
40850;BME280;26571;41.610;25.380;2024-01-10T10:54:58;99590.31;;;-0.03;nan
40850;BME280;26571;41.610;25.380;2024-01-10T10:57:27;99593.94;;;-0.07;nan
40850;BME280;26571;41.610;25.380;2024-01-10T10:59:55;99585.53;;;0.07;nan
40850;BME280;26571;41.610;25.380;2024-01-10T11:02:22;99577.69;;;0.09;nan
40850;BME280;26571;41.610;25.380;2024-01-10T11:04:53;99585.16;;;0.15;nan
40850;BME280;26571;41.610;25.380;2024-01-10T11:07:19;99582.31;;;0.21;nan
40850;BME280;26571;41.610;25.380;2024-01-10T11:09:46;99545.97;;;-0.14;nan
40850;BME280;26571;41.610;25.380;2024-01-10T11:25:03;99568.09;;;0.64;nan
40850;BME280;26571;41.610;25.380;2024-01-10T11:27:30;99570.06;;;0.59;nan
40850;BME280;26571;41.610;25.380;2024-01-10T11:29:55;99515.72;;;0.23;nan
40850;BME280;26571;41.610;25.380;2024-01-10T11:32:22;99545.31;;;0.71;nan
40850;BME280;26571;41.610;25.380;2024-01-10T11:37:19;99543.34;;;0.76;nan
40850;BME280;26571;41.610;25.380;2024-01-10T11:39:45;99540.97;;;0.71;nan
40850;BME280;26571;41.610;25.380;2024-01-10T11:42:11;99542.25;;;0.63;nan
40850;BME280;26571;41.610;25.380;2024-01-10T11:44:50;99497.94;;;0.51;nan
40850;BME280;26571;41.610;25.380;2024-01-10T11:47:19;99546.22;;;0.87;nan
40850;BME280;26571;41.610;25.380;2024-01-10T11:49:56;99533.84;;;0.92;nan
40850;BME280;26571;41.610;25.380;2024-01-10T11:52:22;99514.53;;;0.65;nan
40850;BME280;26571;41.610;25.380;2024-01-10T11:54:50;99526.19;;;0.73;nan
40850;BME280;26571;41.610;25.380;2024-01-10T11:57:27;99533.13;;;0.73;nan
40850;BME280;26571;41.610;25.380;2024-01-10T11:59:54;99531.69;;;0.85;nan
40850;BME280;26571;41.610;25.380;2024-01-10T12:02:22;99509.09;;;0.69;nan
40850;BME280;26571;41.610;25.380;2024-01-10T12:04:50;99532.38;;;1.04;nan
40850;BME280;26571;41.610;25.380;2024-01-10T12:07:17;99532.38;;;1.37;nan
40850;BME280;26571;41.610;25.380;2024-01-10T12:09:44;99529.22;;;1.64;nan
40850;BME280;26571;41.610;25.380;2024-01-10T12:12:10;99525.13;;;1.91;nan
40850;BME280;26571;41.610;25.380;2024-01-10T12:14:39;99507.94;;;2.04;nan
40850;BME280;26571;41.610;25.380;2024-01-10T12:17:05;99523.06;;;2.28;nan
40850;BME280;26571;41.610;25.380;2024-01-10T12:19:33;99522.47;;;2.53;nan
40850;BME280;26571;41.610;25.380;2024-01-10T12:21:59;99521.69;;;2.37;nan
40850;BME280;26571;41.610;25.380;2024-01-10T12:24:27;99511.34;;;2.21;nan
40850;BME280;26571;41.610;25.380;2024-01-10T12:26:55;99516.97;;;2.43;nan
40850;BME280;26571;41.610;25.380;2024-01-10T12:29:21;99532.44;;;2.61;nan
40850;BME280;26571;41.610;25.380;2024-01-10T12:31:47;99526.31;;;2.62;nan
40850;BME280;26571;41.610;25.380;2024-01-10T12:34:13;99507.47;;;2.58;nan
40850;BME280;26571;41.610;25.380;2024-01-10T12:36:43;99521.19;;;2.90;nan
40850;BME280;26571;41.610;25.380;2024-01-10T12:39:09;99501.88;;;2.94;nan
40850;BME280;26571;41.610;25.380;2024-01-10T12:41:35;99518.13;;;3.12;nan
40850;BME280;26571;41.610;25.380;2024-01-10T12:44:04;99475.09;;;3.06;nan
40850;BME280;26571;41.610;25.380;2024-01-10T12:46:30;99508.47;;;3.14;nan
40850;BME280;26571;41.610;25.380;2024-01-10T12:49:04;99518.56;;;3.33;nan
40850;BME280;26571;41.610;25.380;2024-01-10T12:51:31;99517.38;;;3.39;nan
40850;BME280;26571;41.610;25.380;2024-01-10T12:54:00;99515.25;;;3.45;nan
40850;BME280;26571;41.610;25.380;2024-01-10T12:56:27;99476.59;;;3.25;nan
40850;BME280;26571;41.610;25.380;2024-01-10T12:58:53;99519.66;;;3.57;nan
40850;BME280;26571;41.610;25.380;2024-01-10T13:01:21;99518.56;;;3.61;nan
40850;BME280;26571;41.610;25.380;2024-01-10T13:03:47;99512.03;;;3.69;nan
40850;BME280;26571;41.610;25.380;2024-01-10T13:06:14;99519.22;;;3.65;nan
40850;BME280;26571;41.610;25.380;2024-01-10T13:08:39;99517.31;;;3.67;nan
40850;BME280;26571;41.610;25.380;2024-01-10T13:11:05;99512.38;;;3.77;nan
40850;BME280;26571;41.610;25.380;2024-01-10T13:13:34;99505.78;;;3.71;nan
40850;BME280;26571;41.610;25.380;2024-01-10T13:16:03;99511.66;;;3.75;nan
40850;BME280;26571;41.610;25.380;2024-01-10T13:18:29;99502.50;;;3.82;nan
40850;BME280;26571;41.610;25.380;2024-01-10T13:20:55;99508.66;;;3.81;nan
40850;BME280;26571;41.610;25.380;2024-01-10T13:23:21;99506.31;;;3.91;nan
40850;BME280;26571;41.610;25.380;2024-01-10T13:25:50;99502.34;;;3.98;nan
40850;BME280;26571;41.610;25.380;2024-01-10T13:28:19;99503.56;;;4.06;nan
40850;BME280;26571;41.610;25.380;2024-01-10T13:30:45;99490.56;;;3.92;nan